createdAt,value
2019-02-25T00:01:54.894Z,39.30
2019-02-25T00:09:24.746Z,40.80
2019-02-25T00:11:54.353Z,36.57
2019-02-25T00:14:24.876Z,36.83
2019-02-25T00:19:25.089Z,34.57
2019-02-25T00:21:54.513Z,34.37
2019-02-25T00:24:24.823Z,43.07
2019-02-25T00:26:55.883Z,38.53
2019-02-25T00:31:56.811Z,35.33
2019-02-25T00:34:25.918Z,39.37
2019-02-25T00:36:57.459Z,39.07
2019-02-25T00:41:55.865Z,35.97
2019-02-25T00:44:25.474Z,38.07
2019-02-25T00:46:56.192Z,33.83
2019-02-25T00:49:27.974Z,31.20
2019-02-25T00:51:58.827Z,36.70
2019-02-25T00:54:29.746Z,31.83
2019-02-25T00:56:58.715Z,35.60
2019-02-25T00:59:29.126Z,36.33
2019-02-25T01:04:32.975Z,34.57
2019-02-25T01:09:32.287Z,40.17
2019-02-25T01:12:01.373Z,39.20
2019-02-25T01:14:31.701Z,36.13
2019-02-25T01:17:00.482Z,35.93
2019-02-25T01:19:31.229Z,35.17
2019-02-25T01:21:59.905Z,35.27
2019-02-25T01:24:30.446Z,34.13
2019-02-25T01:27:00.450Z,35.70
2019-02-25T01:29:30.992Z,37.03
2019-02-25T01:32:01.825Z,36.00
2019-02-25T01:34:31.012Z,29.27
2019-02-25T01:37:01.646Z,28.63
2019-02-25T01:39:31.050Z,30.50
2019-02-25T01:42:02.526Z,26.20
2019-02-25T01:44:32.641Z,27.00
2019-02-25T01:47:03.869Z,28.60
2019-02-25T01:49:35.848Z,26.20
2019-02-25T01:54:49.587Z,25.83
2019-02-25T01:57:20.835Z,29.30
2019-02-25T01:59:51.258Z,26.27
2019-02-25T02:02:22.691Z,22.90
2019-02-25T02:04:51.907Z,26.20
2019-02-25T02:07:23.035Z,24.93
2019-02-25T02:09:52.128Z,25.37
2019-02-25T02:12:22.376Z,26.67
2019-02-25T02:17:21.461Z,23.13
2019-02-25T02:19:52.713Z,24.77
2019-02-25T02:22:23.439Z,21.57
2019-02-25T02:24:53.884Z,18.90
2019-02-25T02:29:56.987Z,23.03
2019-02-25T02:34:59.115Z,27.63
2019-02-25T02:37:29.784Z,26.37
2019-02-25T02:40:00.646Z,28.20
2019-02-25T02:42:36.478Z,28.67
2019-02-25T02:50:24.442Z,23.17
2019-02-25T02:52:55.401Z,25.07
2019-02-25T02:55:25.808Z,25.33
2019-02-25T02:57:56.868Z,26.03
2019-02-25T03:02:55.884Z,27.43
2019-02-25T03:05:25.371Z,24.30
2019-02-25T03:07:55.686Z,26.70
2019-02-25T03:12:56.441Z,21.73
2019-02-25T03:15:28.823Z,24.53
2019-02-25T03:18:04.971Z,22.00
2019-02-25T03:20:41.857Z,20.60
2019-02-25T03:26:21.836Z,20.13
2019-02-25T03:28:53.486Z,23.90
2019-02-25T03:31:24.116Z,23.53
2019-02-25T03:33:55.040Z,26.57
2019-02-25T03:36:27.014Z,21.53
2019-02-25T03:38:56.819Z,24.63
2019-02-25T03:41:31.840Z,28.87
2019-02-25T03:44:03.827Z,25.67
2019-02-25T03:49:07.228Z,32.03
2019-02-25T03:51:37.652Z,22.17
2019-02-25T03:54:07.773Z,25.77
2019-02-25T03:56:37.905Z,23.30
2019-02-25T03:59:13.739Z,23.97
2019-02-25T04:01:45.399Z,21.53
2019-02-25T04:04:16.532Z,20.63
2019-02-25T04:06:48.619Z,23.70
2019-02-25T04:09:41.973Z,23.57
2019-02-25T04:12:10.863Z,20.60
2019-02-25T04:17:22.976Z,23.33
2019-02-25T04:19:52.901Z,22.47
2019-02-25T04:22:33.178Z,18.07
2019-02-25T04:25:15.441Z,25.60
2019-02-25T04:27:47.001Z,21.67
2019-02-25T04:30:18.967Z,27.97
2019-02-25T04:32:52.884Z,27.23
2019-02-25T04:35:24.434Z,24.97
2019-02-25T04:37:56.304Z,23.50
2019-02-25T04:40:32.866Z,19.67
2019-02-25T04:43:06.766Z,20.60
2019-02-25T04:45:37.686Z,17.07
2019-02-25T04:48:07.912Z,19.43
2019-02-25T04:50:38.436Z,25.50
2019-02-25T04:53:08.778Z,20.27
2019-02-25T04:55:39.829Z,20.97
2019-02-25T04:58:10.021Z,24.90
2019-02-25T05:00:40.450Z,19.67
2019-02-25T05:03:14.785Z,20.00
2019-02-25T05:05:46.749Z,19.27
2019-02-25T05:08:16.847Z,17.77
2019-02-25T05:10:47.304Z,22.67
2019-02-25T05:13:17.658Z,23.77
2019-02-25T05:15:47.714Z,20.30
2019-02-25T05:18:18.144Z,23.33
2019-02-25T05:20:48.597Z,22.40
2019-02-25T05:23:18.790Z,20.40
2019-02-25T05:25:51.800Z,30.67
2019-02-25T05:28:22.609Z,24.07
2019-02-25T05:30:52.848Z,26.13
2019-02-25T05:33:23.786Z,27.80
2019-02-25T05:35:53.090Z,28.40
2019-02-25T05:38:23.914Z,32.07
2019-02-25T05:43:22.512Z,24.67
2019-02-25T05:45:52.849Z,24.20
2019-02-25T05:53:23.622Z,21.33
2019-02-25T05:55:55.047Z,22.93
2019-02-25T05:58:24.122Z,22.03
2019-02-25T06:03:22.942Z,25.97
2019-02-25T06:08:22.469Z,33.60
2019-02-25T06:10:53.538Z,34.10
2019-02-25T06:13:23.828Z,30.40
2019-02-25T06:15:54.460Z,34.47
2019-02-25T06:18:24.915Z,37.83
2019-02-25T06:23:22.898Z,40.77
2019-02-25T06:28:21.469Z,43.37
2019-02-25T06:30:51.808Z,41.70
2019-02-25T06:33:22.547Z,38.67
2019-02-25T06:35:52.878Z,37.00
2019-02-25T06:38:22.903Z,39.53
2019-02-25T06:40:54.535Z,35.80
2019-02-25T06:45:54.247Z,39.23
2019-02-25T06:48:24.906Z,37.77
2019-02-25T06:50:55.127Z,38.40
2019-02-25T06:53:24.961Z,53.40
2019-02-25T06:55:55.447Z,37.00
2019-02-25T06:58:25.477Z,38.20
2019-02-25T07:00:55.475Z,38.87
2019-02-25T07:06:05.960Z,34.83
2019-02-25T07:08:47.767Z,32.97
2019-02-25T07:14:14.106Z,25.03
2019-02-25T07:17:03.081Z,28.87
2019-02-25T07:27:15.124Z,32.43
2019-02-25T07:30:04.384Z,37.60
2019-02-25T07:32:49.867Z,32.87
2019-02-25T07:35:38.507Z,30.77
2019-02-25T07:38:27.362Z,32.33
2019-02-25T07:41:16.750Z,28.27
2019-02-25T07:44:05.483Z,38.13
2019-02-25T07:46:47.898Z,36.27
2019-02-25T07:49:36.863Z,35.53
2019-02-25T07:55:13.453Z,25.43
2019-02-25T07:58:02.410Z,29.77
2019-02-25T08:00:49.831Z,36.23
2019-02-25T08:03:33.132Z,33.00
2019-02-25T08:06:21.812Z,28.47
2019-02-25T08:09:10.883Z,28.13
2019-02-25T08:11:59.848Z,28.97
2019-02-25T08:14:47.468Z,27.17
2019-02-25T08:17:35.706Z,29.77
2019-02-25T08:23:14.133Z,33.33
2019-02-25T08:26:03.837Z,34.10
2019-02-25T08:28:52.898Z,35.37
2019-02-25T08:31:42.666Z,28.70
2019-02-25T08:37:25.705Z,29.77
2019-02-25T08:45:38.456Z,26.67
2019-02-25T08:48:15.127Z,28.53
2019-02-25T08:50:49.126Z,28.33
2019-02-25T08:53:21.526Z,25.60
2019-02-25T08:55:52.446Z,26.13
2019-02-25T08:58:22.874Z,25.40
2019-02-25T09:00:53.805Z,58.43
2019-02-25T09:03:23.825Z,27.27
2019-02-25T09:05:53.841Z,33.87
2019-02-25T09:08:24.275Z,24.93
2019-02-25T09:10:54.696Z,27.73
2019-02-25T09:13:25.016Z,23.27
2019-02-25T09:15:55.249Z,38.47
2019-02-25T09:18:25.459Z,30.07
2019-02-25T09:20:55.284Z,27.10
2019-02-25T09:23:25.194Z,32.20
2019-02-25T09:25:54.995Z,34.43
2019-02-25T09:28:25.424Z,32.63
2019-02-25T09:30:55.748Z,37.40
2019-02-25T09:33:25.670Z,38.63
2019-02-25T09:35:55.684Z,32.10
2019-02-25T09:38:25.796Z,34.90
2019-02-25T09:40:56.022Z,31.80
2019-02-25T09:43:26.144Z,30.60
2019-02-25T09:45:56.666Z,34.07
2019-02-25T09:48:26.474Z,33.07
2019-02-25T09:50:56.808Z,46.47
2019-02-25T09:53:27.245Z,31.37
2019-02-25T09:55:57.107Z,28.40
2019-02-25T09:58:27.692Z,28.50
2019-02-25T10:00:57.798Z,32.50
2019-02-25T10:03:28.217Z,36.23
2019-02-25T10:05:59.679Z,38.93
2019-02-25T10:08:29.604Z,47.97
2019-02-25T10:10:59.917Z,39.20
2019-02-25T10:13:31.460Z,54.87
2019-02-25T10:16:01.685Z,40.90
2019-02-25T10:18:33.746Z,47.13
2019-02-25T10:23:33.674Z,43.63
2019-02-25T10:26:04.011Z,41.57
2019-02-25T10:28:33.920Z,48.23
2019-02-25T10:31:03.927Z,42.97
2019-02-25T10:33:34.254Z,49.90
2019-02-25T10:36:04.064Z,42.87
2019-02-25T10:38:34.385Z,49.40
2019-02-25T10:41:04.724Z,50.20
2019-02-25T10:43:36.462Z,45.07
2019-02-25T10:46:06.970Z,47.73
2019-02-25T10:51:08.821Z,42.73
2019-02-25T10:53:37.357Z,47.50
2019-02-25T11:03:35.899Z,35.47
2019-02-25T11:06:06.006Z,36.40
2019-02-25T11:08:37.377Z,33.93
2019-02-25T11:11:06.756Z,35.87
2019-02-25T11:16:05.873Z,31.93
2019-02-25T11:18:35.985Z,31.43
2019-02-25T11:21:06.897Z,51.03
2019-02-25T11:23:36.526Z,39.07
2019-02-25T11:28:36.664Z,32.77
2019-02-25T11:33:35.675Z,32.93
2019-02-25T11:36:05.483Z,29.53
2019-02-25T11:38:37.414Z,44.47
2019-02-25T11:41:09.474Z,34.73
2019-02-25T11:48:36.183Z,43.27
2019-02-25T11:53:35.088Z,33.73
2019-02-25T11:56:04.796Z,30.17
2019-02-25T11:58:34.810Z,32.87
2019-02-25T12:01:05.257Z,39.50
2019-02-25T12:03:35.565Z,37.60
2019-02-25T12:06:05.476Z,37.80
2019-02-25T12:08:35.489Z,34.53
2019-02-25T12:11:05.614Z,34.33
2019-02-25T12:13:36.136Z,32.53
2019-02-25T12:16:06.155Z,43.43
2019-02-25T12:18:36.382Z,32.13
2019-02-25T12:21:06.715Z,31.53
2019-02-25T12:23:36.724Z,34.80
2019-02-25T12:26:06.851Z,36.97
2019-02-25T12:28:36.756Z,33.67
2019-02-25T12:31:06.774Z,34.90
2019-02-25T12:33:37.297Z,30.40
2019-02-25T12:38:36.107Z,35.70
2019-02-25T12:41:06.226Z,25.60
2019-02-25T12:43:36.854Z,24.00
2019-02-25T12:46:07.171Z,32.73
2019-02-25T12:48:37.503Z,33.03
2019-02-25T12:53:37.869Z,33.73
2019-02-25T12:58:37.571Z,26.53
2019-02-25T13:03:36.775Z,37.73
2019-02-25T13:08:36.579Z,28.53
2019-02-25T13:13:37.465Z,42.77
2019-02-25T13:18:36.977Z,51.07
2019-02-25T13:21:07.206Z,28.67
2019-02-25T13:23:37.694Z,30.00
2019-02-25T13:26:07.914Z,31.80
2019-02-25T13:28:38.284Z,25.63
2019-02-25T13:31:10.234Z,24.33
2019-02-25T13:33:39.239Z,30.20
2019-02-25T13:36:11.906Z,26.53
2019-02-25T13:41:09.688Z,24.27
2019-02-25T13:43:38.584Z,30.93
2019-02-25T13:48:37.802Z,34.17
2019-02-25T13:53:37.520Z,25.33
2019-02-25T13:56:07.956Z,26.30
2019-02-25T13:58:38.394Z,27.93
2019-02-25T14:03:37.704Z,26.50
2019-02-25T14:06:08.225Z,22.07
2019-02-25T14:11:07.939Z,20.20
2019-02-25T14:13:38.672Z,21.27
2019-02-25T14:18:37.686Z,23.50
2019-02-25T14:21:07.812Z,25.23
2019-02-25T14:23:40.329Z,28.83
2019-02-25T14:26:08.876Z,25.27
2019-02-25T14:33:37.786Z,39.90
2019-02-25T14:36:10.658Z,35.30
2019-02-25T14:38:39.127Z,44.77
2019-02-25T14:41:11.181Z,43.17
2019-02-25T14:53:38.629Z,28.70
2019-02-25T14:56:08.957Z,30.80
2019-02-25T14:58:40.565Z,34.10
2019-02-25T15:01:10.726Z,30.73
2019-02-25T15:03:40.846Z,27.73
2019-02-25T15:11:10.855Z,27.77
2019-02-25T15:18:38.896Z,34.20
2019-02-25T15:21:11.249Z,32.70
2019-02-25T15:28:39.372Z,45.77
2019-02-25T15:33:39.893Z,27.20
2019-02-25T15:36:11.468Z,28.43
2019-02-25T15:38:41.795Z,35.77
2019-02-25T15:41:11.716Z,34.13
2019-02-25T15:48:41.430Z,179.53
2019-02-25T15:51:10.554Z,56.60
2019-02-25T15:56:10.269Z,41.03
2019-02-25T16:03:40.913Z,54.67
2019-02-25T16:06:10.596Z,57.93
2019-02-25T16:13:38.876Z,49.33
2019-02-25T16:16:11.347Z,39.07
2019-02-25T16:18:42.568Z,46.73
2019-02-25T16:21:13.307Z,42.70
2019-02-25T16:26:13.400Z,73.07
2019-02-25T16:28:42.130Z,59.00
2019-02-25T16:36:10.031Z,51.30
2019-02-25T16:38:40.367Z,45.27
2019-02-25T16:51:12.378Z,40.67
2019-02-25T17:26:15.668Z,53.13
2019-02-25T17:28:45.906Z,63.70
2019-02-25T17:31:16.366Z,63.37
2019-02-25T17:51:19.115Z,66.67
2019-02-25T17:53:52.686Z,65.37
2019-02-25T17:56:26.670Z,63.00
2019-02-25T17:58:59.370Z,57.53
2019-02-25T18:01:30.866Z,49.00
2019-02-25T18:04:08.785Z,53.80
2019-02-25T18:19:20.892Z,54.10
2019-02-25T18:21:52.017Z,55.33
2019-02-25T18:24:26.760Z,52.53
2019-02-25T18:26:58.917Z,53.47
2019-02-25T18:29:29.514Z,52.73
2019-02-25T18:32:04.215Z,48.90
2019-02-25T18:34:37.046Z,50.67
2019-02-25T18:37:09.213Z,72.10
2019-02-25T18:47:21.269Z,49.47
2019-02-25T18:49:58.357Z,57.60
2019-02-25T18:52:31.865Z,57.30
2019-02-25T18:55:11.255Z,57.73
2019-02-25T19:00:24.303Z,59.00
2019-02-25T19:02:56.267Z,57.90
2019-02-25T19:05:29.253Z,57.43
2019-02-25T19:08:00.483Z,58.10
2019-02-25T19:10:30.718Z,55.33
2019-02-25T19:13:05.949Z,46.80
2019-02-25T19:15:40.979Z,46.17
2019-02-25T19:23:20.755Z,44.70
2019-02-25T19:25:49.641Z,43.80
2019-02-25T19:28:19.677Z,41.30
2019-02-25T19:33:22.867Z,41.47
2019-02-25T19:35:54.403Z,43.90
2019-02-25T19:38:34.008Z,42.23
2019-02-25T19:41:05.470Z,38.23
2019-02-25T19:43:37.113Z,37.40
2019-02-25T19:46:08.718Z,40.53
2019-02-25T19:48:39.864Z,43.23
2019-02-25T19:51:11.913Z,41.50
2019-02-25T19:56:18.013Z,41.97
2019-02-25T19:58:46.998Z,39.03
2019-02-25T20:11:12.910Z,39.20
2019-02-25T20:21:13.681Z,36.63
2019-02-25T20:23:45.382Z,40.60
2019-02-25T20:26:17.708Z,38.70
2019-02-25T20:28:48.758Z,38.63
2019-02-25T20:36:17.173Z,40.70
2019-02-25T20:38:44.199Z,35.67
2019-02-25T20:43:56.710Z,36.57
2019-02-25T20:46:29.201Z,33.50
2019-02-25T20:49:01.465Z,34.43
2019-02-25T20:51:36.900Z,37.93
2019-02-25T20:54:11.138Z,34.27
2019-02-25T20:56:44.418Z,37.00
2019-02-25T20:59:16.908Z,34.97
2019-02-25T21:01:51.125Z,35.63
2019-02-25T21:04:22.275Z,36.37
2019-02-25T21:19:20.030Z,43.20
2019-02-25T21:21:52.921Z,47.23
2019-02-25T21:24:19.307Z,40.93
2019-02-25T21:29:17.490Z,38.23
2019-02-25T21:31:47.575Z,44.57
2019-02-25T21:39:18.649Z,42.07
2019-02-25T21:44:19.103Z,44.77
2019-02-25T21:46:51.862Z,46.63
2019-02-25T21:49:20.222Z,51.50
2019-02-25T21:59:17.595Z,50.07
2019-02-25T22:01:46.881Z,58.70
2019-02-25T22:04:18.581Z,56.07
2019-02-25T22:09:22.678Z,50.80
2019-02-25T22:19:18.604Z,44.50
2019-02-25T22:21:47.354Z,48.17
2019-02-25T22:29:17.293Z,59.70
2019-02-25T22:31:46.590Z,63.37
2019-02-25T22:34:18.080Z,62.33
2019-02-25T22:36:48.714Z,58.67
2019-02-25T22:39:18.469Z,49.60
2019-02-25T22:44:16.358Z,49.73
2019-02-25T22:49:15.453Z,43.20
2019-02-25T22:51:45.484Z,41.90
2019-02-25T22:54:17.103Z,45.23
2019-02-25T22:56:46.939Z,43.40
2019-02-25T22:59:19.920Z,39.67
2019-02-25T23:01:47.692Z,38.07
2019-02-25T23:06:48.928Z,42.13
2019-02-25T23:09:18.967Z,45.57
2019-02-25T23:11:50.505Z,52.80
2019-02-25T23:19:18.184Z,49.00
2019-02-25T23:21:47.713Z,46.87
2019-02-25T23:26:48.743Z,48.10
2019-02-25T23:29:19.582Z,51.07
2019-02-25T23:31:48.525Z,45.90
2019-02-25T23:36:47.513Z,52.07
2019-02-25T23:39:17.883Z,52.43
2019-02-25T23:46:47.484Z,53.07
2019-02-25T23:51:48.153Z,47.13
2019-02-25T23:59:17.094Z,42.90
